createdAt,value
2022-10-08T00:01:05.870Z,16.97
2022-10-08T00:03:40.866Z,17.00
2022-10-08T00:06:15.777Z,16.98
2022-10-08T00:08:52.896Z,16.95
2022-10-08T00:11:29.942Z,16.98
2022-10-08T00:14:03.794Z,16.94
2022-10-08T00:16:39.242Z,16.96
2022-10-08T00:19:14.291Z,16.95
2022-10-08T00:21:50.929Z,16.91
2022-10-08T00:24:24.499Z,16.97
2022-10-08T00:26:59.503Z,16.97
2022-10-08T00:29:33.490Z,16.90
2022-10-08T00:32:07.121Z,16.86
2022-10-08T00:34:39.987Z,16.87
2022-10-08T00:37:12.825Z,16.92
2022-10-08T00:39:45.652Z,16.93
2022-10-08T00:42:19.835Z,16.85
2022-10-08T00:44:55.884Z,16.83
2022-10-08T00:47:40.992Z,16.90
2022-10-08T00:50:18.300Z,16.90
2022-10-08T00:52:55.666Z,16.87
2022-10-08T00:55:30.202Z,16.89
2022-10-08T00:58:14.887Z,16.89
2022-10-08T01:00:48.566Z,16.87
2022-10-08T01:03:21.496Z,16.90
2022-10-08T01:06:02.301Z,16.83
2022-10-08T01:08:45.578Z,16.80
2022-10-08T01:11:26.056Z,16.84
2022-10-08T01:14:06.671Z,16.83
2022-10-08T01:16:46.668Z,16.81
2022-10-08T01:19:48.616Z,16.81
2022-10-08T01:22:36.050Z,16.79
2022-10-08T01:25:34.273Z,16.76
2022-10-08T01:28:15.950Z,16.67
2022-10-08T01:30:53.271Z,16.64
2022-10-08T01:33:30.702Z,16.65
2022-10-08T01:36:07.081Z,16.60
2022-10-08T01:38:47.067Z,16.59
2022-10-08T01:41:21.740Z,16.57
2022-10-08T01:44:03.018Z,16.57
2022-10-08T01:46:41.086Z,16.55
2022-10-08T01:49:18.457Z,16.49
2022-10-08T01:51:55.981Z,16.51
2022-10-08T01:54:31.357Z,16.52
2022-10-08T01:57:06.827Z,16.49
2022-10-08T01:59:46.322Z,16.47
2022-10-08T02:02:22.726Z,16.43
2022-10-08T02:04:56.949Z,16.44
2022-10-08T02:07:32.967Z,16.43
2022-10-08T02:10:08.890Z,16.44
2022-10-08T02:12:42.717Z,16.44
2022-10-08T02:15:21.082Z,16.40
2022-10-08T02:18:00.114Z,16.40
2022-10-08T02:20:38.163Z,16.40
2022-10-08T02:23:18.280Z,16.42
2022-10-08T02:25:55.629Z,16.37
2022-10-08T02:28:38.166Z,16.37
2022-10-08T02:31:18.828Z,16.38
2022-10-08T02:34:03.960Z,16.32
2022-10-08T02:36:40.189Z,16.32
2022-10-08T02:39:15.799Z,16.29
2022-10-08T02:41:53.109Z,16.30
2022-10-08T02:44:33.121Z,16.28
2022-10-08T02:47:11.358Z,16.32
2022-10-08T02:49:51.159Z,16.29
2022-10-08T02:52:28.163Z,16.27
2022-10-08T02:55:04.100Z,16.28
2022-10-08T02:57:44.094Z,16.27
2022-10-08T03:00:17.346Z,16.23
2022-10-08T03:02:58.778Z,16.20
2022-10-08T03:05:31.971Z,16.22
2022-10-08T03:08:06.410Z,16.20
2022-10-08T03:10:42.346Z,16.17
2022-10-08T03:13:16.121Z,16.17
2022-10-08T03:15:53.832Z,16.12
2022-10-08T03:18:28.658Z,16.17
2022-10-08T03:21:01.577Z,16.12
2022-10-08T03:23:34.561Z,16.13
2022-10-08T03:26:07.590Z,16.14
2022-10-08T03:28:40.611Z,16.08
2022-10-08T03:31:13.627Z,16.15
2022-10-08T03:33:52.022Z,16.13
2022-10-08T03:36:26.319Z,16.15
2022-10-08T03:38:59.349Z,16.09
2022-10-08T03:41:32.469Z,16.06
2022-10-08T03:44:07.915Z,16.13
2022-10-08T03:46:40.863Z,16.07
2022-10-08T03:49:16.470Z,16.06
2022-10-08T03:51:49.384Z,16.11
2022-10-08T03:54:22.272Z,16.12
2022-10-08T03:56:55.218Z,16.11
2022-10-08T03:59:27.960Z,16.17
2022-10-08T04:02:00.663Z,16.15
2022-10-08T04:04:35.283Z,16.16
2022-10-08T04:07:07.953Z,16.10
2022-10-08T04:09:40.972Z,16.11
2022-10-08T04:12:13.807Z,16.00
2022-10-08T04:14:46.529Z,16.00
2022-10-08T04:17:19.414Z,15.97
2022-10-08T04:19:54.456Z,16.02
2022-10-08T04:22:27.198Z,15.97
2022-10-08T04:25:00.113Z,15.95
2022-10-08T04:27:35.736Z,15.91
2022-10-08T04:30:09.681Z,15.86
2022-10-08T04:32:42.549Z,15.91
2022-10-08T04:35:18.059Z,16.00
2022-10-08T04:37:51.088Z,15.92
2022-10-08T04:40:24.045Z,15.89
2022-10-08T04:42:56.759Z,15.90
2022-10-08T04:45:29.560Z,15.86
2022-10-08T04:48:02.451Z,15.89
2022-10-08T04:50:36.743Z,15.83
2022-10-08T04:53:09.640Z,15.86
2022-10-08T04:55:42.401Z,15.89
2022-10-08T04:58:15.214Z,15.80
2022-10-08T05:00:48.016Z,15.79
2022-10-08T05:03:20.927Z,15.80
2022-10-08T05:05:55.715Z,15.77
2022-10-08T05:08:29.533Z,15.75
2022-10-08T05:11:02.314Z,15.71
2022-10-08T05:13:35.653Z,15.63
2022-10-08T05:16:10.262Z,15.65
2022-10-08T05:18:43.409Z,15.64
2022-10-08T05:21:18.957Z,15.66
2022-10-08T05:23:55.670Z,15.64
2022-10-08T05:26:56.127Z,15.64
2022-10-08T05:29:23.502Z,15.64
2022-10-08T05:31:56.245Z,15.62
2022-10-08T05:34:29.042Z,15.67
2022-10-08T05:37:03.364Z,15.62
2022-10-08T05:39:36.385Z,15.62
2022-10-08T05:42:10.156Z,15.59
2022-10-08T05:44:45.424Z,15.57
2022-10-08T05:47:18.632Z,15.58
2022-10-08T05:49:51.418Z,15.63
2022-10-08T05:52:27.248Z,15.58
2022-10-08T05:55:00.446Z,15.57
2022-10-08T05:57:33.359Z,15.53
2022-10-08T06:00:06.913Z,15.45
2022-10-08T06:02:44.159Z,15.45
2022-10-08T06:05:17.208Z,15.45
2022-10-08T06:07:53.186Z,15.48
2022-10-08T06:10:25.964Z,15.41
2022-10-08T06:12:58.715Z,15.39
2022-10-08T06:15:31.424Z,15.44
2022-10-08T06:18:04.276Z,15.41
2022-10-08T06:20:37.625Z,15.41
2022-10-08T06:23:11.943Z,15.43
2022-10-08T06:25:44.804Z,15.36
2022-10-08T06:28:17.862Z,15.20
2022-10-08T06:30:50.481Z,15.15
2022-10-08T06:33:25.384Z,15.12
2022-10-08T06:36:03.024Z,15.14
2022-10-08T06:38:37.173Z,15.13
2022-10-08T06:41:10.453Z,15.25
2022-10-08T06:43:43.195Z,15.35
2022-10-08T06:46:16.722Z,15.36
2022-10-08T06:48:49.654Z,15.38
2022-10-08T06:51:22.347Z,15.41
2022-10-08T06:54:02.793Z,15.34
2022-10-08T06:56:40.117Z,15.34
2022-10-08T06:59:13.214Z,15.39
2022-10-08T07:01:45.823Z,15.37
2022-10-08T07:04:18.541Z,15.35
2022-10-08T07:06:51.317Z,15.48
2022-10-08T07:09:25.461Z,15.47
2022-10-08T07:11:58.152Z,15.41
2022-10-08T07:14:30.945Z,15.35
2022-10-08T07:17:03.663Z,15.48
2022-10-08T07:19:36.492Z,15.45
2022-10-08T07:22:09.460Z,15.48
2022-10-08T07:24:43.538Z,15.47
2022-10-08T07:27:17.170Z,15.48
2022-10-08T07:29:49.867Z,15.51
2022-10-08T07:32:22.712Z,15.51
2022-10-08T07:34:59.281Z,15.55
2022-10-08T07:37:32.944Z,15.62
2022-10-08T07:40:08.198Z,15.57
2022-10-08T07:42:41.342Z,15.62
2022-10-08T07:45:14.836Z,15.66
2022-10-08T07:47:47.813Z,15.73
2022-10-08T07:50:20.542Z,15.77
2022-10-08T07:52:53.375Z,15.81
2022-10-08T07:55:27.456Z,15.79
2022-10-08T07:58:00.147Z,15.85
2022-10-08T08:00:33.230Z,15.84
2022-10-08T08:03:06.096Z,15.94
2022-10-08T08:05:38.735Z,16.02
2022-10-08T08:08:12.303Z,16.04
2022-10-08T08:10:46.872Z,16.10
2022-10-08T08:13:19.687Z,16.17
2022-10-08T08:16:00.495Z,16.14
2022-10-08T08:18:35.336Z,16.21
2022-10-08T08:21:09.944Z,16.26
2022-10-08T08:23:44.810Z,16.22
2022-10-08T08:26:21.370Z,16.12
2022-10-08T08:28:55.650Z,16.18
2022-10-08T08:31:31.173Z,16.21
2022-10-08T08:34:07.027Z,16.14
2022-10-08T08:36:42.949Z,16.24
2022-10-08T08:39:17.602Z,16.18
2022-10-08T08:42:22.010Z,16.20
2022-10-08T08:44:59.607Z,16.23
2022-10-08T08:47:37.357Z,16.29
2022-10-08T08:50:20.374Z,16.41
2022-10-08T08:52:53.247Z,16.48
2022-10-08T08:55:35.458Z,16.60
2022-10-08T08:58:25.643Z,16.66
2022-10-08T09:01:05.417Z,16.75
2022-10-08T09:03:42.417Z,16.96
2022-10-08T09:06:20.054Z,17.01
2022-10-08T09:08:58.070Z,17.07
2022-10-08T09:11:31.370Z,17.14
2022-10-08T09:14:31.259Z,17.17
2022-10-08T09:17:14.662Z,17.17
2022-10-08T09:19:49.530Z,17.38
2022-10-08T09:22:23.941Z,17.38
2022-10-08T09:25:01.011Z,17.45
2022-10-08T09:27:50.307Z,17.44
2022-10-08T09:30:34.413Z,17.62
2022-10-08T09:33:29.435Z,17.79
2022-10-08T09:36:02.162Z,17.87
2022-10-08T09:38:38.058Z,17.94
2022-10-08T09:41:19.567Z,18.00
2022-10-08T09:44:16.004Z,18.11
2022-10-08T09:47:04.796Z,18.12
2022-10-08T09:49:38.826Z,18.22
2022-10-08T09:52:17.338Z,18.32
2022-10-08T09:54:54.363Z,18.38
2022-10-08T09:57:27.550Z,18.36
2022-10-08T10:00:01.494Z,18.47
2022-10-08T10:02:38.347Z,18.61
2022-10-08T10:05:23.722Z,18.73
2022-10-08T10:07:58.504Z,18.73
2022-10-08T10:10:34.742Z,18.71
2022-10-08T10:13:12.324Z,18.90
2022-10-08T10:15:52.120Z,18.88
2022-10-08T10:18:35.956Z,18.96
2022-10-08T10:21:39.613Z,19.01
2022-10-08T10:24:41.798Z,19.12
2022-10-08T10:27:19.532Z,19.17
2022-10-08T10:30:00.737Z,19.12
2022-10-08T10:32:38.862Z,19.24
2022-10-08T10:35:21.123Z,19.24
2022-10-08T10:38:02.564Z,19.33
2022-10-08T10:40:40.684Z,19.43
2022-10-08T10:43:37.095Z,19.56
2022-10-08T10:46:24.215Z,19.67
2022-10-08T10:48:57.610Z,19.76
2022-10-08T10:51:49.336Z,19.83
2022-10-08T10:54:41.171Z,19.85
2022-10-08T10:57:25.142Z,19.99
2022-10-08T11:00:06.001Z,20.05
2022-10-08T11:02:47.182Z,20.15
2022-10-08T11:05:24.670Z,20.25
2022-10-08T11:08:19.361Z,20.32
2022-10-08T11:11:07.100Z,20.30
2022-10-08T11:13:52.919Z,20.43
2022-10-08T11:16:36.718Z,20.49
2022-10-08T11:19:22.112Z,20.56
2022-10-08T11:22:04.481Z,20.61
2022-10-08T11:24:52.899Z,20.72
2022-10-08T11:27:37.854Z,20.72
2022-10-08T11:30:14.479Z,20.66
2022-10-08T11:32:53.740Z,20.67
2022-10-08T11:35:32.312Z,20.70
2022-10-08T11:38:13.736Z,20.65
2022-10-08T11:40:50.509Z,20.63
2022-10-08T11:43:30.990Z,20.56
2022-10-08T11:46:28.776Z,20.59
2022-10-08T11:49:02.546Z,20.54
2022-10-08T11:51:38.986Z,20.46
2022-10-08T11:54:16.408Z,20.49
2022-10-08T11:56:52.938Z,20.53
2022-10-08T11:59:37.462Z,20.53
2022-10-08T12:02:24.901Z,20.67
2022-10-08T12:05:00.619Z,20.62
2022-10-08T12:07:36.817Z,20.79
2022-10-08T12:10:31.133Z,20.81
2022-10-08T12:13:31.268Z,20.88
2022-10-08T12:16:08.369Z,20.99
2022-10-08T12:18:45.491Z,20.97
2022-10-08T12:21:49.988Z,21.04
2022-10-08T12:24:53.176Z,21.11
2022-10-08T12:27:39.243Z,21.11
2022-10-08T12:30:14.177Z,21.15
2022-10-08T12:32:56.209Z,21.14
2022-10-08T12:35:32.428Z,21.15
2022-10-08T12:38:16.232Z,21.29
2022-10-08T12:40:59.164Z,21.25
2022-10-08T12:43:40.786Z,21.32
2022-10-08T12:46:25.764Z,21.34
2022-10-08T12:49:06.072Z,21.36
2022-10-08T12:51:47.695Z,21.37
2022-10-08T12:54:24.655Z,21.35
2022-10-08T12:56:58.631Z,21.33
2022-10-08T12:59:32.537Z,21.38
2022-10-08T13:02:05.441Z,21.34
2022-10-08T13:04:47.348Z,21.41
2022-10-08T13:07:26.382Z,21.37
2022-10-08T13:10:01.449Z,21.42
2022-10-08T13:12:34.259Z,21.45
2022-10-08T13:15:09.192Z,21.45
2022-10-08T13:17:41.979Z,21.48
2022-10-08T13:20:19.970Z,21.47
2022-10-08T13:22:53.163Z,21.54
2022-10-08T13:25:34.500Z,21.52
2022-10-08T13:28:15.224Z,21.58
2022-10-08T13:30:48.485Z,21.61
2022-10-08T13:33:24.667Z,21.58
2022-10-08T13:36:00.938Z,21.65
2022-10-08T13:38:36.896Z,21.63
2022-10-08T13:41:23.485Z,21.62
2022-10-08T13:43:56.810Z,21.52
2022-10-08T13:46:29.511Z,21.50
2022-10-08T13:49:02.357Z,21.46
2022-10-08T13:51:36.410Z,21.33
2022-10-08T13:54:11.019Z,21.23
2022-10-08T13:56:43.714Z,21.21
2022-10-08T13:59:16.629Z,21.20
2022-10-08T14:01:49.869Z,21.18
2022-10-08T14:04:22.692Z,21.10
2022-10-08T14:06:59.155Z,21.00
2022-10-08T14:09:32.368Z,20.86
2022-10-08T14:12:05.476Z,20.85
2022-10-08T14:14:38.169Z,20.67
2022-10-08T14:17:10.821Z,20.72
2022-10-08T14:19:43.655Z,20.59
2022-10-08T14:22:18.330Z,20.58
2022-10-08T14:24:51.321Z,20.51
2022-10-08T14:27:24.048Z,20.46
2022-10-08T14:29:57.043Z,20.43
2022-10-08T14:32:29.536Z,20.34
2022-10-08T14:35:03.012Z,20.20
2022-10-08T14:37:37.054Z,20.18
2022-10-08T14:40:16.034Z,20.06
2022-10-08T14:42:49.117Z,20.03
2022-10-08T14:45:22.852Z,19.94
2022-10-08T14:47:55.767Z,19.90
2022-10-08T14:50:28.474Z,19.84
2022-10-08T14:53:02.469Z,19.74
2022-10-08T14:55:49.357Z,19.69
2022-10-08T14:58:29.218Z,19.72
2022-10-08T15:01:02.078Z,19.73
2022-10-08T15:03:34.965Z,19.71
2022-10-08T15:06:08.217Z,19.68
2022-10-08T15:08:45.153Z,19.55
2022-10-08T15:11:17.803Z,19.51
2022-10-08T15:13:50.955Z,19.47
2022-10-08T15:16:23.695Z,19.48
2022-10-08T15:18:58.112Z,19.47
2022-10-08T15:21:30.745Z,19.42
2022-10-08T15:24:07.795Z,19.27
2022-10-08T15:26:43.207Z,19.30
2022-10-08T15:29:18.868Z,19.24
2022-10-08T15:31:53.966Z,19.19
2022-10-08T15:34:28.574Z,19.11
2022-10-08T15:37:01.230Z,19.04
2022-10-08T15:39:36.134Z,19.11
2022-10-08T15:42:10.549Z,18.96
2022-10-08T15:44:46.266Z,18.84
2022-10-08T15:47:18.963Z,18.80
2022-10-08T15:49:51.870Z,18.77
2022-10-08T15:52:24.539Z,18.78
2022-10-08T15:54:58.497Z,18.77
2022-10-08T15:57:31.406Z,18.66
2022-10-08T16:00:04.448Z,18.58
2022-10-08T16:02:44.648Z,18.68
2022-10-08T16:05:17.583Z,18.60
2022-10-08T16:07:50.783Z,18.43
2022-10-08T16:10:24.897Z,18.38
2022-10-08T16:12:57.629Z,18.44
2022-10-08T16:15:30.372Z,18.40
2022-10-08T16:18:04.073Z,18.39
2022-10-08T16:20:36.862Z,18.47
2022-10-08T16:23:09.610Z,18.40
2022-10-08T16:25:45.580Z,18.41
2022-10-08T16:28:18.480Z,18.29
2022-10-08T16:30:51.218Z,18.24
2022-10-08T16:33:28.537Z,18.21
2022-10-08T16:36:03.322Z,18.26
2022-10-08T16:38:37.932Z,18.25
2022-10-08T16:41:17.095Z,18.18
2022-10-08T16:43:52.303Z,18.05
2022-10-08T16:46:27.500Z,18.08
2022-10-08T16:49:01.934Z,18.06
2022-10-08T16:51:36.867Z,17.97
2022-10-08T16:54:13.511Z,18.02
2022-10-08T16:56:48.099Z,17.92
2022-10-08T16:59:22.662Z,17.85
2022-10-08T17:01:57.502Z,17.85
2022-10-08T17:04:35.343Z,17.83
2022-10-08T17:07:09.044Z,17.88
2022-10-08T17:09:43.253Z,17.92
2022-10-08T17:12:21.823Z,17.79
2022-10-08T17:14:54.834Z,17.80
2022-10-08T17:17:29.163Z,17.86
2022-10-08T17:20:01.880Z,17.63
2022-10-08T17:22:34.664Z,17.65
2022-10-08T17:25:07.992Z,17.61
2022-10-08T17:27:43.270Z,17.71
2022-10-08T17:30:17.778Z,17.64
2022-10-08T17:32:50.569Z,17.60
2022-10-08T17:35:24.104Z,17.58
2022-10-08T17:37:56.792Z,17.53
2022-10-08T17:40:30.592Z,17.52
2022-10-08T17:43:12.431Z,17.49
2022-10-08T17:45:45.385Z,17.44
2022-10-08T17:48:18.275Z,17.48
2022-10-08T17:50:50.921Z,17.44
2022-10-08T17:53:23.770Z,17.40
2022-10-08T17:56:00.714Z,17.36
2022-10-08T17:58:35.465Z,17.40
2022-10-08T18:01:12.208Z,17.35
2022-10-08T18:03:49.959Z,17.36
2022-10-08T18:06:23.620Z,17.31
2022-10-08T18:08:57.321Z,17.24
2022-10-08T18:11:32.025Z,17.28
2022-10-08T18:14:07.261Z,17.31
2022-10-08T18:16:44.266Z,17.28
2022-10-08T18:19:20.353Z,17.23
2022-10-08T18:21:53.226Z,17.23
2022-10-08T18:24:27.054Z,17.25
2022-10-08T18:26:59.859Z,17.17
2022-10-08T18:29:33.952Z,17.30
2022-10-08T18:32:06.699Z,17.22
2022-10-08T18:37:23.957Z,17.19
2022-10-08T18:39:59.957Z,17.06
2022-10-08T18:42:32.831Z,17.12
2022-10-08T18:45:08.451Z,17.01
2022-10-08T18:47:41.273Z,17.02
2022-10-08T18:50:14.451Z,17.04
2022-10-08T18:52:50.313Z,17.00
2022-10-08T18:55:23.375Z,17.00
2022-10-08T19:01:05.148Z,16.89
2022-10-08T19:03:38.408Z,16.92
2022-10-08T19:06:11.874Z,16.80
2022-10-08T19:08:45.261Z,16.77
2022-10-08T19:11:18.988Z,16.78
2022-10-08T19:13:53.788Z,16.73
2022-10-08T19:16:28.763Z,16.71
2022-10-08T19:19:03.791Z,16.67
2022-10-08T19:21:38.737Z,16.62
2022-10-08T19:24:21.474Z,16.55
2022-10-08T19:26:56.266Z,16.54
2022-10-08T19:29:33.679Z,16.54
2022-10-08T19:32:08.180Z,16.48
2022-10-08T19:34:41.711Z,16.47
2022-10-08T19:37:15.234Z,16.44
2022-10-08T19:39:48.757Z,16.44
2022-10-08T19:42:22.574Z,16.36
2022-10-08T19:44:55.440Z,16.32
2022-10-08T19:47:29.517Z,16.38
2022-10-08T19:50:02.423Z,16.31
2022-10-08T19:52:35.558Z,16.28
2022-10-08T19:55:08.688Z,16.24
2022-10-08T19:57:41.502Z,16.19
2022-10-08T20:00:16.822Z,16.18
2022-10-08T20:02:51.723Z,16.17
2022-10-08T20:05:25.035Z,16.17
2022-10-08T20:08:00.647Z,16.20
2022-10-08T20:10:33.688Z,16.17
2022-10-08T20:13:07.057Z,16.16
2022-10-08T20:15:41.734Z,16.13
2022-10-08T20:18:16.310Z,16.11
2022-10-08T20:20:49.072Z,16.07
2022-10-08T20:23:22.101Z,16.05
2022-10-08T20:25:55.250Z,16.08
2022-10-08T20:28:28.966Z,16.03
2022-10-08T20:31:09.361Z,15.98
2022-10-08T20:33:44.622Z,15.97
2022-10-08T20:36:18.420Z,15.94
2022-10-08T20:38:52.150Z,15.87
2022-10-08T20:41:30.612Z,15.87
2022-10-08T20:44:05.989Z,15.86
2022-10-08T20:46:39.279Z,15.84
2022-10-08T20:49:14.292Z,15.84
2022-10-08T20:51:47.150Z,15.79
2022-10-08T20:54:20.692Z,15.75
2022-10-08T20:56:53.555Z,15.70
2022-10-08T20:59:26.704Z,15.71
2022-10-08T21:01:59.759Z,15.66
2022-10-08T21:04:34.094Z,15.61
2022-10-08T21:07:06.833Z,15.59
2022-10-08T21:09:40.029Z,15.64
2022-10-08T21:12:12.635Z,15.64
2022-10-08T21:14:45.368Z,15.57
2022-10-08T21:17:18.132Z,15.53
2022-10-08T21:19:52.281Z,15.55
2022-10-08T21:22:25.156Z,15.55
2022-10-08T21:24:57.881Z,15.47
2022-10-08T21:27:30.968Z,15.48
2022-10-08T21:30:03.716Z,15.53
2022-10-08T21:32:36.656Z,15.49
2022-10-08T21:35:11.140Z,15.44
2022-10-08T21:37:43.984Z,15.43
2022-10-08T21:40:16.956Z,15.42
2022-10-08T21:42:50.284Z,15.41
2022-10-08T21:45:24.024Z,15.41
2022-10-08T21:47:56.921Z,15.39
2022-10-08T21:50:35.272Z,15.34
2022-10-08T21:53:08.828Z,15.30
2022-10-08T21:55:41.812Z,15.29
2022-10-08T21:58:14.536Z,15.33
2022-10-08T22:00:47.409Z,15.31
2022-10-08T22:03:20.388Z,15.24
2022-10-08T22:05:56.965Z,15.21
2022-10-08T22:08:31.960Z,15.23
2022-10-08T22:11:06.600Z,15.19
2022-10-08T22:13:39.609Z,15.18
2022-10-08T22:16:13.341Z,15.19
2022-10-08T22:18:46.210Z,15.16
2022-10-08T22:21:23.165Z,15.15
2022-10-08T22:23:56.104Z,15.14
2022-10-08T22:26:30.988Z,15.14
2022-10-08T22:29:04.434Z,15.14
2022-10-08T22:31:38.111Z,15.11
2022-10-08T22:34:11.503Z,15.13
2022-10-08T22:36:45.996Z,15.10
2022-10-08T22:39:18.849Z,15.12
2022-10-08T22:41:51.479Z,15.12
2022-10-08T22:44:24.204Z,15.09
2022-10-08T22:46:57.258Z,15.08
2022-10-08T22:49:30.112Z,15.12
2022-10-08T22:52:04.370Z,15.07
2022-10-08T22:54:37.337Z,15.05
2022-10-08T22:57:10.189Z,15.07
2022-10-08T22:59:42.916Z,15.04
2022-10-08T23:02:15.680Z,15.05
2022-10-08T23:04:48.446Z,15.09
2022-10-08T23:07:22.833Z,15.03
2022-10-08T23:09:55.692Z,15.04
2022-10-08T23:12:28.971Z,15.00
2022-10-08T23:15:01.677Z,15.04
2022-10-08T23:17:34.615Z,15.02
2022-10-08T23:20:07.682Z,15.01
2022-10-08T23:22:41.738Z,15.03
2022-10-08T23:25:14.521Z,14.98
2022-10-08T23:27:47.419Z,14.95
2022-10-08T23:30:41.542Z,14.98
2022-10-08T23:33:14.592Z,14.93
2022-10-08T23:35:55.472Z,14.93
2022-10-08T23:38:29.743Z,14.95
2022-10-08T23:41:03.552Z,14.97
2022-10-08T23:43:37.889Z,14.97
2022-10-08T23:46:13.215Z,14.88
2022-10-08T23:48:47.146Z,14.87
2022-10-08T23:51:21.277Z,14.88
2022-10-08T23:53:56.152Z,14.85
2022-10-08T23:56:29.331Z,14.82
2022-10-08T23:59:02.145Z,14.83
